Time;durP1;ratioP1;P1;durP2;ratioP2;P2;SDS_P1;SDS_P2;PMS_P1;PMS_P2;Temp;Humidity;BMP_temperature;BMP_pressure;BME280_temperature;BME280_humidity;BME280_pressure;Samples;Min_cycle;Max_cycle;Signal;HPM_P1;HPM_P2
2021/03/01 00:01:46;;;;;;;24.88;15.07;;;5.60;99.90;;;;;;4999856;28;20030;-85
2021/03/01 00:04:11;;;;;;;24.08;15.30;;;5.50;99.90;;;;;;5006640;28;20025;-86
2021/03/01 00:06:37;;;;;;;28.67;17.50;;;5.50;99.90;;;;;;4994360;28;20034;-86
2021/03/01 00:09:03;;;;;;;30.15;18.08;;;5.50;99.90;;;;;;5004673;28;20034;-87
2021/03/01 00:11:28;;;;;;;28.90;16.45;;;5.50;99.90;;;;;;4982575;28;20034;-87
2021/03/01 00:13:54;;;;;;;27.30;15.75;;;5.50;99.90;;;;;;4980505;28;20081;-87
2021/03/01 00:16:19;;;;;;;28.45;16.77;;;5.50;99.90;;;;;;5006812;28;20033;-86
2021/03/01 00:18:45;;;;;;;28.48;16.90;;;5.50;99.90;;;;;;4994030;28;20063;-86
2021/03/01 00:21:11;;;;;;;33.17;18.88;;;5.50;99.90;;;;;;5003218;28;20030;-86
2021/03/01 00:23:36;;;;;;;31.23;17.40;;;5.50;99.90;;;;;;5001432;28;20110;-87
2021/03/01 00:26:02;;;;;;;27.60;16.23;;;5.50;99.90;;;;;;5010158;28;20461;-89
2021/03/01 00:28:27;;;;;;;28.63;16.67;;;5.50;99.90;;;;;;5008931;28;20030;-85
2021/03/01 00:30:53;;;;;;;29.63;17.40;;;5.60;99.90;;;;;;4987376;28;20046;-86
2021/03/01 00:33:18;;;;;;;30.63;18.15;;;5.60;99.90;;;;;;4998694;28;20083;-86
2021/03/01 00:35:44;;;;;;;34.67;18.77;;;5.60;99.90;;;;;;4998140;28;20472;-86
2021/03/01 00:38:10;;;;;;;35.63;19.92;;;5.60;99.90;;;;;;5003926;28;20025;-87
2021/03/01 00:40:35;;;;;;;34.08;19.10;;;5.50;99.90;;;;;;5006607;28;20018;-86
2021/03/01 00:43:01;;;;;;;39.05;20.75;;;5.50;99.90;;;;;;4972581;28;20826;-85
2021/03/01 00:45:26;;;;;;;33.10;20.00;;;5.50;99.90;;;;;;4981704;28;20032;-86
2021/03/01 00:47:52;;;;;;;39.92;21.42;;;5.50;99.90;;;;;;5015587;28;20120;-86
2021/03/01 00:50:19;;;;;;;40.05;22.70;;;5.50;99.90;;;;;;4975714;28;20112;-86
2021/03/01 00:52:45;;;;;;;41.42;23.23;;;5.50;99.90;;;;;;4980634;28;20474;-86
2021/03/01 00:55:11;;;;;;;39.58;22.02;;;5.50;99.90;;;;;;4989245;28;20033;-87
2021/03/01 00:57:37;;;;;;;37.63;21.17;;;5.50;99.90;;;;;;5009974;28;20407;-86
2021/03/01 01:00:08;;;;;;;44.88;23.40;;;5.40;99.90;;;;;;5009729;28;20030;-86
2021/03/01 01:02:34;;;;;;;38.60;22.40;;;5.40;99.90;;;;;;4991890;28;20637;-87
2021/03/01 01:04:59;;;;;;;34.88;19.83;;;5.40;99.90;;;;;;5004221;28;20109;-86
2021/03/01 01:07:25;;;;;;;35.28;19.45;;;5.40;99.90;;;;;;4981271;28;20029;-84
2021/03/01 01:09:51;;;;;;;37.67;20.80;;;5.50;99.90;;;;;;4988531;28;20109;-86
2021/03/01 01:12:16;;;;;;;46.97;25.23;;;5.50;99.90;;;;;;5004843;28;20177;-85
2021/03/01 01:14:42;;;;;;;37.88;20.98;;;5.50;99.90;;;;;;5008485;28;20080;-86
2021/03/01 01:17:07;;;;;;;37.05;19.95;;;5.50;99.90;;;;;;5008515;28;20026;-86
2021/03/01 01:19:33;;;;;;;40.72;22.65;;;5.50;99.90;;;;;;4981725;28;20023;-86
2021/03/01 01:21:59;;;;;;;39.85;22.38;;;5.50;99.90;;;;;;4972395;28;20385;-86
2021/03/01 01:24:24;;;;;;;42.83;23.58;;;5.50;99.90;;;;;;4990031;28;20118;-86
2021/03/01 01:26:50;;;;;;;38.83;22.00;;;5.50;99.90;;;;;;4990085;28;20058;-87
2021/03/01 01:29:15;;;;;;;38.05;21.17;;;5.50;99.90;;;;;;4993454;28;20022;-86
2021/03/01 01:31:41;;;;;;;43.17;23.48;;;5.40;99.90;;;;;;4993138;28;20022;-85
2021/03/01 01:34:07;;;;;;;46.40;23.67;;;5.50;99.90;;;;;;4992912;28;20025;-85
2021/03/01 01:36:32;;;;;;;38.55;22.65;;;5.50;99.90;;;;;;4989554;28;20063;-86
2021/03/01 01:38:58;;;;;;;34.47;19.67;;;5.50;99.90;;;;;;4995735;28;20026;-86
2021/03/01 01:41:23;;;;;;;34.50;20.83;;;5.50;99.90;;;;;;4992938;28;20137;-84
2021/03/01 01:43:49;;;;;;;36.80;21.58;;;5.60;99.90;;;;;;4992311;28;20026;-84
2021/03/01 01:46:15;;;;;;;37.38;21.77;;;5.60;99.90;;;;;;5007855;28;20573;-85
2021/03/01 01:48:40;;;;;;;41.53;22.55;;;5.60;99.90;;;;;;4991291;28;20033;-85
2021/03/01 01:51:06;;;;;;;34.08;20.33;;;5.60;99.90;;;;;;5007158;28;20116;-86
2021/03/01 01:53:32;;;;;;;36.03;20.38;;;5.60;99.90;;;;;;4980523;28;20046;-85
2021/03/01 01:55:59;;;;;;;37.92;21.20;;;5.60;99.90;;;;;;5012910;28;20042;-84
2021/03/01 01:58:26;;;;;;;37.13;21.48;;;5.60;99.90;;;;;;4993602;28;20073;-86
2021/03/01 02:00:51;;;;;;;38.05;21.63;;;5.60;99.90;;;;;;4972715;28;20018;-87
2021/03/01 02:03:35;;;;;;;37.15;21.33;;;5.60;99.90;;;;;;4993134;28;20107;-87
2021/03/01 02:06:08;;;;;;;36.53;20.48;;;5.60;99.90;;;;;;5015148;28;20022;-87
2021/03/01 02:08:46;;;;;;;38.42;20.13;;;5.60;99.90;;;;;;5015848;28;20113;-87
2021/03/01 02:11:40;;;;;;;34.95;19.83;;;5.70;99.90;;;;;;4998311;28;20048;-85
2021/03/01 02:14:14;;;;;;;;;;;5.60;99.90;;;;;;4998853;28;20022;-86
2021/03/01 02:16:40;;;;;;;32.53;17.52;;;5.60;99.90;;;;;;5015672;28;19952;-86
2021/03/01 02:19:07;;;;;;;34.47;20.25;;;5.60;99.90;;;;;;4998140;28;20022;-86
2021/03/01 02:21:46;;;;;;;36.97;21.10;;;5.60;99.90;;;;;;5015405;28;20033;-85
2021/03/01 02:24:40;;;;;;;40.67;22.40;;;5.60;99.90;;;;;;5015978;28;20092;-88
2021/03/01 02:27:07;;;;;;;37.03;21.73;;;5.60;99.90;;;;;;4997925;28;20033;-87
2021/03/01 02:29:33;;;;;;;35.50;20.65;;;5.60;99.90;;;;;;5015676;28;20076;-86
2021/03/01 02:32:01;;;;;;;36.83;20.15;;;5.60;99.90;;;;;;4997975;28;20180;-86
2021/03/01 02:34:33;;;;;;;35.58;21.10;;;5.60;99.90;;;;;;4998090;28;20045;-85
2021/03/01 02:37:02;;;;;;;39.53;22.02;;;5.60;99.90;;;;;;4998100;28;20420;-85
2021/03/01 02:39:30;;;;;;;35.95;21.80;;;5.60;99.90;;;;;;4997669;28;20014;-86
2021/03/01 02:41:57;;;;;;;36.00;20.50;;;5.60;99.90;;;;;;4997605;28;20491;-85
2021/03/01 02:44:23;;;;;;;34.13;20.50;;;5.60;99.90;;;;;;4997557;28;20026;-86
2021/03/01 02:46:50;;;;;;;37.72;21.40;;;5.50;99.90;;;;;;4997648;28;20026;-87
2021/03/01 02:49:17;;;;;;;36.65;21.25;;;5.50;99.90;;;;;;4997765;28;20444;-86
2021/03/01 02:51:45;;;;;;;33.85;19.13;;;5.50;99.90;;;;;;5015302;28;20064;-87
2021/03/01 02:54:13;;;;;;;30.00;18.38;;;5.50;99.90;;;;;;4997501;28;20128;-86
2021/03/01 02:56:40;;;;;;;36.60;21.02;;;5.50;99.90;;;;;;4997622;28;20029;-86
2021/03/01 02:59:07;;;;;;;35.35;20.23;;;5.60;99.90;;;;;;5013640;28;20010;-86
2021/03/01 03:01:35;;;;;;;37.47;21.83;;;5.60;99.90;;;;;;4997120;28;20038;-85
2021/03/01 03:04:02;;;;;;;37.83;22.17;;;5.60;99.90;;;;;;5013741;28;20054;-85
2021/03/01 03:06:30;;;;;;;33.47;19.13;;;5.60;99.90;;;;;;4997245;28;20113;-86
2021/03/01 03:08:57;;;;;;;35.97;20.25;;;5.60;99.90;;;;;;4997199;28;20467;-85
2021/03/01 03:11:25;;;;;;;36.55;20.77;;;5.60;99.90;;;;;;5014830;28;20026;-86
2021/03/01 03:13:53;;;;;;;36.13;21.73;;;5.60;99.90;;;;;;5013880;28;20057;-86
2021/03/01 03:16:23;;;;;;;37.88;21.20;;;5.50;99.90;;;;;;5014482;28;20564;-85
2021/03/01 03:18:50;;;;;;;32.75;19.00;;;5.50;99.90;;;;;;4997004;28;20037;-85
2021/03/01 03:21:16;;;;;;;36.95;21.63;;;5.50;99.90;;;;;;5013246;28;20480;-85
2021/03/01 03:23:42;;;;;;;33.10;19.20;;;5.50;99.90;;;;;;4996859;28;20120;-87
2021/03/01 03:26:08;;;;;;;34.13;19.70;;;5.40;99.90;;;;;;4997239;28;20060;-86
2021/03/01 03:28:34;;;;;;;35.92;20.85;;;5.40;99.90;;;;;;4996718;28;20026;-86
2021/03/01 03:31:00;;;;;;;29.45;17.90;;;5.40;99.90;;;;;;4996863;28;20076;-86
2021/03/01 03:33:25;;;;;;;30.33;19.48;;;5.40;99.90;;;;;;4996611;28;20472;-85
2021/03/01 03:35:51;;;;;;;28.08;17.60;;;5.40;99.90;;;;;;5013093;28;20482;-88
2021/03/01 03:38:47;;;;;;;29.38;17.35;;;5.40;99.90;;;;;;4997048;28;20046;-87
2021/03/01 03:41:15;;;;;;;29.80;17.50;;;5.50;99.90;;;;;;4995801;28;20530;-86
2021/03/01 03:43:42;;;;;;;29.88;17.92;;;5.50;99.90;;;;;;5014398;28;20018;-86
2021/03/01 03:46:11;;;;;;;31.55;17.95;;;5.50;99.90;;;;;;4996898;28;20026;-87
2021/03/01 03:48:38;;;;;;;29.83;18.48;;;5.50;99.90;;;;;;4996852;28;20117;-88
2021/03/01 03:51:07;;;;;;;29.88;18.23;;;5.50;99.90;;;;;;5014457;28;20022;-87
2021/03/01 03:53:37;;;;;;;27.35;17.77;;;5.50;99.90;;;;;;4995898;28;20034;-88
2021/03/01 03:56:04;;;;;;;29.55;17.85;;;5.40;99.90;;;;;;4996819;28;20022;-88
2021/03/01 03:58:35;;;;;;;31.35;19.42;;;5.40;99.90;;;;;;4996750;28;20075;-88
2021/03/01 04:01:02;;;;;;;33.65;20.50;;;5.40;99.90;;;;;;5013464;28;20026;-86
2021/03/01 04:03:31;;;;;;;31.40;18.73;;;5.30;99.90;;;;;;5014733;28;20025;-86
2021/03/01 04:05:58;;;;;;;31.35;18.77;;;5.30;99.90;;;;;;5014391;28;20033;-87
2021/03/01 04:08:27;;;;;;;33.60;20.35;;;5.30;99.90;;;;;;4996826;28;20025;-88
2021/03/01 04:10:55;;;;;;;32.60;20.08;;;5.30;99.90;;;;;;4996723;28;20072;-86
2021/03/01 04:13:25;;;;;;;29.38;17.90;;;5.30;99.90;;;;;;4996612;28;20052;-86
2021/03/01 04:15:51;;;;;;;29.80;18.52;;;5.30;99.90;;;;;;4996999;28;20112;-88
2021/03/01 04:18:23;;;;;;;31.70;18.92;;;5.20;99.90;;;;;;4996643;28;20053;-86
2021/03/01 04:20:50;;;;;;;26.85;17.48;;;5.20;99.90;;;;;;4996295;28;20395;-88
2021/03/01 04:23:17;;;;;;;29.85;18.70;;;5.20;99.90;;;;;;4996720;28;20109;-89
2021/03/01 04:25:48;;;;;;;24.92;15.10;;;5.20;99.90;;;;;;5013884;28;20109;-88
2021/03/01 04:28:15;;;;;;;28.55;17.17;;;5.30;99.90;;;;;;5013098;28;20041;-86
2021/03/01 04:30:41;;;;;;;31.75;18.60;;;5.30;99.90;;;;;;4996374;28;20104;-87
2021/03/01 04:33:08;;;;;;;26.05;15.93;;;5.30;99.90;;;;;;4995598;28;20057;-87
2021/03/01 04:35:34;;;;;;;26.63;15.82;;;5.30;99.90;;;;;;5013368;28;20030;-86
2021/03/01 04:38:00;;;;;;;28.45;17.42;;;5.30;99.90;;;;;;5013891;28;20092;-87
2021/03/01 04:40:26;;;;;;;28.25;17.30;;;5.30;99.90;;;;;;4995743;28;20476;-87
2021/03/01 04:42:52;;;;;;;35.28;21.00;;;5.20;99.90;;;;;;4995606;28;20034;-87
2021/03/01 04:45:19;;;;;;;29.77;18.75;;;5.30;99.90;;;;;;4995541;28;20110;-87
2021/03/01 04:47:48;;;;;;;32.13;19.65;;;5.20;99.90;;;;;;4995717;28;20026;-87
2021/03/01 04:50:15;;;;;;;29.65;18.73;;;5.20;99.90;;;;;;4995797;28;20029;-86
2021/03/01 04:52:43;;;;;;;28.75;17.30;;;5.20;99.90;;;;;;5013291;28;20377;-86
2021/03/01 04:55:09;;;;;;;28.67;19.10;;;5.10;99.90;;;;;;5012999;28;20112;-88
2021/03/01 04:57:36;;;;;;;27.85;17.70;;;5.10;99.90;;;;;;4995650;28;20033;-87
2021/03/01 05:00:10;;;;;;;25.08;16.38;;;5.10;99.90;;;;;;4995071;28;20127;-86
2021/03/01 05:02:40;;;;;;;24.83;15.40;;;5.10;99.90;;;;;;4995255;28;20041;-86
2021/03/01 05:05:07;;;;;;;27.55;16.42;;;5.10;99.90;;;;;;4995208;28;20025;-86
2021/03/01 05:07:35;;;;;;;26.13;16.45;;;5.10;99.90;;;;;;4994891;28;20479;-85
2021/03/01 05:10:01;;;;;;;23.80;15.40;;;5.10;99.90;;;;;;5011635;28;20026;-85
2021/03/01 05:12:26;;;;;;;28.63;16.55;;;5.10;99.90;;;;;;4995053;28;20025;-87
2021/03/01 05:14:52;;;;;;;27.83;16.52;;;5.10;99.90;;;;;;5011807;28;20018;-87
2021/03/01 05:17:18;;;;;;;27.85;18.25;;;5.10;99.90;;;;;;5012562;28;20034;-85
2021/03/01 05:19:43;;;;;;;32.60;20.30;;;5.10;99.90;;;;;;5012604;28;20104;-86
2021/03/01 05:22:09;;;;;;;29.92;18.60;;;5.10;99.90;;;;;;5012675;28;20130;-86
2021/03/01 05:24:34;;;;;;;30.48;18.38;;;5.10;99.90;;;;;;4995324;28;20022;-87
2021/03/01 05:27:00;;;;;;;28.75;18.42;;;5.00;99.90;;;;;;4995228;28;20034;-88
2021/03/01 05:29:27;;;;;;;28.25;17.85;;;5.00;99.90;;;;;;4994764;28;20041;-86
2021/03/01 05:31:53;;;;;;;32.90;21.02;;;5.00;99.90;;;;;;4995135;28;20022;-87
2021/03/01 05:34:18;;;;;;;31.80;20.02;;;5.00;99.90;;;;;;4994960;28;20030;-87
2021/03/01 05:36:44;;;;;;;39.10;22.80;;;5.00;99.90;;;;;;4994932;28;20438;-86
2021/03/01 05:39:10;;;;;;;34.75;20.15;;;5.00;99.90;;;;;;5016259;28;20030;-87
2021/03/01 05:41:39;;;;;;;37.72;21.65;;;4.90;99.90;;;;;;4994223;28;20030;-87
2021/03/01 05:44:06;;;;;;;36.13;22.45;;;4.90;99.90;;;;;;4997128;28;20025;-88
2021/03/01 05:46:35;;;;;;;37.13;23.65;;;4.80;99.90;;;;;;5006694;28;20030;-89
2021/03/01 05:49:02;;;;;;;34.05;21.80;;;4.80;99.90;;;;;;5014949;28;20026;-88
2021/03/01 05:51:29;;;;;;;39.17;20.90;;;4.70;99.90;;;;;;5015202;28;20053;-87
2021/03/01 05:53:59;;;;;;;30.45;18.27;;;4.70;99.90;;;;;;5013701;28;20447;-87
2021/03/01 05:56:25;;;;;;;29.88;18.90;;;4.70;99.90;;;;;;5014810;28;20033;-89
2021/03/01 05:58:51;;;;;;;34.50;20.50;;;4.80;99.90;;;;;;5031862;28;20022;-89
2021/03/01 06:01:17;;;;;;;35.97;21.25;;;4.80;99.90;;;;;;5014945;28;20030;-88
2021/03/01 06:03:44;;;;;;;33.03;20.42;;;4.80;99.90;;;;;;5014811;28;20018;-88
2021/03/01 06:06:12;;;;;;;38.60;22.05;;;4.80;99.90;;;;;;5009921;28;20025;-86
2021/03/01 06:08:38;;;;;;;32.83;19.88;;;4.70;99.90;;;;;;4985625;28;20040;-88
2021/03/01 06:11:06;;;;;;;33.47;19.90;;;4.70;99.90;;;;;;4985627;28;20022;-88
2021/03/01 06:13:33;;;;;;;32.30;19.08;;;4.70;99.90;;;;;;5016257;28;20455;-88
2021/03/01 06:16:00;;;;;;;35.95;21.17;;;4.60;99.90;;;;;;4995061;28;20041;-87
2021/03/01 06:18:26;;;;;;;34.22;20.88;;;4.60;99.90;;;;;;4995277;28;20515;-88
2021/03/01 06:21:06;;;;;;;36.42;20.05;;;4.60;99.90;;;;;;4994289;28;20034;-89
2021/03/01 06:23:34;;;;;;;35.42;20.35;;;4.60;99.90;;;;;;5027019;28;20033;-88
2021/03/01 06:26:32;;;;;;;31.95;20.25;;;4.60;99.90;;;;;;4997396;28;20030;-89
2021/03/01 06:29:04;;;;;;;35.28;20.10;;;4.50;99.90;;;;;;5003471;28;20064;-88
2021/03/01 06:31:35;;;;;;;35.00;20.75;;;4.50;99.90;;;;;;4997202;28;20068;-86
2021/03/01 06:34:27;;;;;;;35.75;20.38;;;4.40;99.90;;;;;;5014727;28;20040;-86
2021/03/01 06:36:56;;;;;;;35.20;19.70;;;4.40;99.90;;;;;;5002331;28;20038;-86
2021/03/01 06:39:30;;;;;;;39.03;21.67;;;4.30;99.90;;;;;;4994862;28;20033;-87
2021/03/01 06:41:56;;;;;;;37.90;22.45;;;4.30;99.90;;;;;;5022079;28;20038;-86
2021/03/01 06:44:22;;;;;;;34.55;20.00;;;4.30;99.90;;;;;;5005887;28;20352;-86
2021/03/01 06:46:53;;;;;;;31.48;19.25;;;4.30;99.90;;;;;;5002566;28;20026;-87
2021/03/01 06:49:20;;;;;;;45.60;24.13;;;4.40;99.90;;;;;;4995589;28;20491;-85
2021/03/01 06:51:47;;;;;;;37.38;21.60;;;4.30;99.90;;;;;;5012187;28;20022;-86
2021/03/01 06:54:23;;;;;;;39.65;22.48;;;4.30;99.90;;;;;;4999941;28;20041;-85
2021/03/01 06:56:49;;;;;;;35.70;20.42;;;4.40;99.90;;;;;;4994011;28;20176;-86
2021/03/01 06:59:17;;;;;;;38.55;22.02;;;4.40;99.90;;;;;;5011189;28;20077;-87
2021/03/01 07:01:52;;;;;;;39.20;22.52;;;4.40;99.90;;;;;;5013205;28;20056;-86
2021/03/01 07:04:25;;;;;;;38.40;21.75;;;4.40;99.90;;;;;;5003867;28;20025;-88
2021/03/01 07:06:53;;;;;;;40.08;22.35;;;4.40;99.90;;;;;;5008675;28;20026;-87
2021/03/01 07:09:20;;;;;;;40.53;22.48;;;4.30;99.90;;;;;;5015803;28;20053;-85
2021/03/01 07:11:46;;;;;;;36.83;21.45;;;4.30;99.90;;;;;;5011351;28;20046;-86
2021/03/01 07:14:32;;;;;;;33.33;19.15;;;4.30;99.90;;;;;;5000114;28;20061;-86
2021/03/01 07:16:59;;;;;;;37.60;21.63;;;4.30;99.90;;;;;;4993677;28;20138;-85
2021/03/01 07:19:29;;;;;;;34.97;19.85;;;4.30;99.90;;;;;;5004390;28;20026;-86
2021/03/01 07:21:57;;;;;;;36.25;20.45;;;4.30;99.90;;;;;;5024799;28;20030;-86
2021/03/01 07:24:26;;;;;;;33.22;19.27;;;4.20;99.90;;;;;;4995869;28;20022;-86
2021/03/01 07:26:57;;;;;;;42.75;22.25;;;4.20;99.90;;;;;;4995010;28;20042;-86
2021/03/01 07:29:24;;;;;;;35.42;19.50;;;4.20;99.90;;;;;;5008023;28;20022;-85
2021/03/01 07:31:58;;;;;;;35.35;20.80;;;4.20;99.90;;;;;;4996515;28;20030;-86
2021/03/01 07:34:24;;;;;;;37.20;21.50;;;4.10;99.90;;;;;;4993340;28;20031;-86
2021/03/01 07:36:53;;;;;;;40.42;21.85;;;4.10;99.90;;;;;;5022881;28;20026;-85
2021/03/01 07:39:18;;;;;;;34.22;19.30;;;4.00;99.90;;;;;;5013836;28;20029;-85
2021/03/01 07:41:45;;;;;;;33.45;18.92;;;4.00;99.90;;;;;;4995741;28;20193;-85
2021/03/01 07:44:12;;;;;;;35.03;19.92;;;4.00;99.90;;;;;;5003531;28;20045;-84
2021/03/01 07:46:41;;;;;;;36.38;20.02;;;4.00;99.90;;;;;;4987698;28;20022;-85
2021/03/01 07:49:14;;;;;;;36.35;21.02;;;4.00;99.90;;;;;;4985549;28;20030;-85
2021/03/01 07:51:48;;;;;;;35.85;21.20;;;4.00;99.90;;;;;;4996410;28;20041;-86
2021/03/01 07:54:15;;;;;;;33.33;18.23;;;4.00;99.90;;;;;;5002247;28;20066;-86
2021/03/01 07:56:42;;;;;;;35.85;18.88;;;4.00;99.90;;;;;;5002751;28;20029;-85
2021/03/01 07:59:09;;;;;;;35.35;18.23;;;4.00;99.90;;;;;;4995700;28;20034;-87
2021/03/01 08:01:35;;;;;;;28.63;16.27;;;4.00;99.90;;;;;;4994975;28;20084;-86
2021/03/01 08:04:01;;;;;;;33.63;19.10;;;4.10;99.90;;;;;;5010314;28;20026;-87
2021/03/01 08:06:58;;;;;;;33.40;18.63;;;4.10;99.90;;;;;;4988944;28;20033;-84
2021/03/01 08:09:44;;;;;;;30.42;16.67;;;4.10;99.90;;;;;;4993624;28;20022;-86
2021/03/01 08:12:33;;;;;;;29.83;17.10;;;4.10;99.90;;;;;;5010257;28;20014;-86
2021/03/01 08:15:03;;;;;;;34.45;18.58;;;4.20;99.90;;;;;;4974804;28;20057;-85
2021/03/01 08:17:32;;;;;;;36.22;19.70;;;4.20;99.90;;;;;;4997291;28;20391;-85
2021/03/01 08:20:19;;;;;;;32.35;17.92;;;4.30;99.90;;;;;;5010487;28;20025;-85
2021/03/01 08:23:03;;;;;;;34.10;20.33;;;4.30;99.90;;;;;;5013036;28;20033;-87
2021/03/01 08:25:44;;;;;;;33.33;20.08;;;4.30;99.90;;;;;;4996721;28;20487;-86
2021/03/01 08:28:22;;;;;;;32.20;17.58;;;4.40;99.90;;;;;;4984772;28;20080;-85
2021/03/01 08:30:56;;;;;;;38.80;19.92;;;4.40;99.90;;;;;;4992581;28;20034;-85
2021/03/01 08:33:28;;;;;;;32.00;17.98;;;4.40;99.90;;;;;;4993648;28;20022;-86
2021/03/01 08:36:13;;;;;;;32.75;16.63;;;4.30;99.90;;;;;;4981663;28;20464;-86
2021/03/01 08:38:46;;;;;;;36.50;20.42;;;4.40;99.90;;;;;;4994784;28;20076;-85
2021/03/01 08:41:16;;;;;;;34.80;18.23;;;4.40;99.90;;;;;;5003023;28;20057;-86
2021/03/01 08:43:51;;;;;;;37.08;21.88;;;4.40;99.90;;;;;;4976761;28;20637;-88
2021/03/01 08:46:19;;;;;;;32.67;17.92;;;4.40;99.90;;;;;;4993609;28;20045;-87
2021/03/01 08:48:53;;;;;;;30.02;16.35;;;4.30;99.90;;;;;;4999885;28;20018;-88
2021/03/01 08:51:20;;;;;;;30.90;17.35;;;4.40;99.90;;;;;;5001049;28;20054;-88
2021/03/01 08:53:45;;;;;;;34.95;18.70;;;4.50;99.90;;;;;;4996874;28;20479;-87
2021/03/01 08:56:17;;;;;;;37.92;21.15;;;4.50;99.90;;;;;;5013670;28;20176;-88
2021/03/01 08:58:43;;;;;;;35.78;18.52;;;4.50;99.90;;;;;;5012826;28;20037;-87
2021/03/01 09:01:08;;;;;;;34.47;18.60;;;4.50;99.90;;;;;;4997153;28;20034;-87
2021/03/01 09:03:42;;;;;;;31.65;18.52;;;4.50;99.90;;;;;;5012575;28;20026;-87
2021/03/01 09:06:08;;;;;;;25.83;16.10;;;4.60;99.90;;;;;;5008100;28;20021;-86
2021/03/01 09:08:38;;;;;;;34.25;19.25;;;4.60;99.90;;;;;;4995553;28;20042;-89
2021/03/01 09:11:07;;;;;;;31.77;17.35;;;4.60;99.90;;;;;;4996600;28;20057;-87
2021/03/01 09:13:36;;;;;;;29.63;16.83;;;4.70;99.90;;;;;;4983566;28;20104;-87
2021/03/01 09:16:09;;;;;;;33.13;18.83;;;4.80;99.90;;;;;;5024577;28;20017;-87
2021/03/01 09:18:36;;;;;;;26.88;16.17;;;4.80;99.90;;;;;;5027803;28;20064;-91
2021/03/01 09:21:02;;;;;;;32.72;17.33;;;4.90;99.90;;;;;;5019167;28;20036;-89
2021/03/01 09:23:47;;;;;;;29.60;16.88;;;4.80;99.90;;;;;;5004392;28;20036;-90
2021/03/01 09:26:25;;;;;;;29.30;17.52;;;4.90;99.90;;;;;;5011255;28;20037;-88
2021/03/01 09:28:57;;;;;;;31.10;16.98;;;4.90;99.90;;;;;;5013269;28;20026;-90
2021/03/01 09:31:23;;;;;;;28.85;16.88;;;4.80;99.90;;;;;;5014163;28;20034;-87
2021/03/01 09:33:50;;;;;;;29.42;16.42;;;4.90;99.90;;;;;;4979420;28;20019;-86
2021/03/01 09:36:16;;;;;;;28.65;17.15;;;4.90;99.90;;;;;;5004735;28;20030;-88
2021/03/01 09:38:50;;;;;;;29.35;16.05;;;4.90;99.90;;;;;;5017358;28;20022;-88
2021/03/01 09:41:15;;;;;;;26.80;15.82;;;4.90;99.90;;;;;;5020359;28;20033;-90
2021/03/01 09:43:44;;;;;;;25.95;16.02;;;5.00;99.90;;;;;;5020372;28;20022;-88
2021/03/01 09:46:10;;;;;;;26.13;16.13;;;5.00;99.90;;;;;;4993607;28;20086;-91
2021/03/01 09:48:42;;;;;;;26.90;14.77;;;5.10;99.90;;;;;;4991761;28;20024;-90
2021/03/01 09:51:08;;;;;;;27.63;15.70;;;5.20;99.90;;;;;;4993881;28;20420;-91
2021/03/01 09:53:34;;;;;;;28.85;15.55;;;5.10;99.90;;;;;;4986034;28;20025;-91
2021/03/01 09:56:00;;;;;;;24.10;13.93;;;5.20;99.90;;;;;;5000248;28;20129;-90
2021/03/01 09:58:34;;;;;;;27.50;16.40;;;5.20;99.90;;;;;;5016059;28;20598;-90
2021/03/01 10:01:08;;;;;;;28.92;17.40;;;5.30;99.90;;;;;;5000984;28;20101;-91
2021/03/01 10:03:35;;;;;;;29.98;17.33;;;5.30;99.90;;;;;;4998759;28;20032;-89
2021/03/01 10:06:01;;;;;;;26.65;16.15;;;5.30;99.90;;;;;;4996682;28;20038;-89
2021/03/01 10:08:27;;;;;;;28.35;16.25;;;5.20;99.90;;;;;;5007574;28;20459;-90
2021/03/01 10:10:53;;;;;;;30.77;16.50;;;5.20;99.90;;;;;;5019789;28;20099;-89
2021/03/01 10:13:29;;;;;;;29.02;17.10;;;5.20;99.90;;;;;;5002295;28;20046;-89
2021/03/01 10:15:55;;;;;;;32.30;17.90;;;5.20;99.90;;;;;;5003316;28;20078;-88
2021/03/01 10:18:25;;;;;;;32.72;18.17;;;5.20;99.90;;;;;;5005970;28;20040;-90
2021/03/01 10:20:58;;;;;;;31.50;17.90;;;5.20;99.90;;;;;;5006108;28;20117;-90
2021/03/01 10:23:26;;;;;;;27.42;15.70;;;5.20;99.90;;;;;;4999287;28;20035;-87
2021/03/01 10:26:03;;;;;;;25.08;15.18;;;5.20;99.90;;;;;;5007046;28;20029;-91
2021/03/01 10:28:37;;;;;;;34.92;19.83;;;5.30;99.90;;;;;;5019230;28;20389;-90
2021/03/01 10:31:09;;;;;;;29.13;17.25;;;5.40;99.90;;;;;;5000836;28;20034;-89
2021/03/01 10:33:58;;;;;;;30.77;17.67;;;5.40;99.90;;;;;;4982242;28;20065;-91
2021/03/01 10:36:34;;;;;;;28.85;15.90;;;5.30;99.90;;;;;;4999336;28;20030;-90
2021/03/01 10:39:16;;;;;;;29.80;16.30;;;5.30;99.90;;;;;;5011539;28;20022;-88
2021/03/01 10:41:51;;;;;;;26.10;14.15;;;5.30;99.90;;;;;;4997652;28;20025;-90
2021/03/01 10:44:17;;;;;;;27.98;14.88;;;5.50;99.90;;;;;;4999610;28;20022;-91
2021/03/01 10:46:49;;;;;;;22.00;13.80;;;5.60;99.90;;;;;;4999846;28;20017;-90
2021/03/01 10:49:20;;;;;;;22.92;13.20;;;5.70;99.90;;;;;;5000591;28;20472;-90
2021/03/01 10:51:47;;;;;;;26.58;14.60;;;5.80;99.90;;;;;;5000701;28;20037;-90
2021/03/01 10:54:13;;;;;;;25.05;14.93;;;5.90;99.90;;;;;;4999973;28;20077;-91
2021/03/01 10:56:38;;;;;;;24.90;14.43;;;6.00;99.90;;;;;;4999569;28;20253;-90
2021/03/01 10:59:05;;;;;;;21.90;13.48;;;6.00;99.90;;;;;;4997919;28;20022;-90
2021/03/01 11:01:35;;;;;;;26.17;15.30;;;6.20;99.90;;;;;;4998920;28;20046;-92
2021/03/01 11:04:01;;;;;;;24.95;13.95;;;6.20;99.90;;;;;;5000165;28;20018;-89
2021/03/01 11:06:28;;;;;;;26.83;14.45;;;6.20;99.90;;;;;;4999483;28;20013;-91
2021/03/01 11:08:57;;;;;;;23.17;13.07;;;6.20;99.90;;;;;;5011281;28;20014;-92
2021/03/01 11:11:23;;;;;;;25.70;15.25;;;6.40;99.90;;;;;;5003378;28;20033;-91
2021/03/01 11:13:49;;;;;;;23.77;14.35;;;6.40;99.90;;;;;;5008816;28;20018;-92
2021/03/01 11:16:15;;;;;;;27.88;16.00;;;6.40;99.90;;;;;;4999340;28;20034;-91
2021/03/01 11:18:41;;;;;;;26.50;15.70;;;6.50;99.90;;;;;;4999684;28;20137;-89
2021/03/01 11:21:07;;;;;;;24.60;14.10;;;6.60;99.90;;;;;;4998705;28;20026;-89
2021/03/01 11:23:32;;;;;;;24.35;14.63;;;6.50;99.90;;;;;;4995733;28;20038;-91
2021/03/01 11:26:00;;;;;;;23.95;14.40;;;6.50;99.90;;;;;;4998208;28;20095;-93
2021/03/01 11:28:29;;;;;;;24.65;13.43;;;6.50;99.90;;;;;;4996152;28;20437;-93
2021/03/01 11:30:55;;;;;;;23.83;14.45;;;6.60;99.90;;;;;;5012673;28;20490;-91
2021/03/01 11:33:21;;;;;;;23.80;14.32;;;6.70;99.90;;;;;;4995716;28;20026;-91
2021/03/01 11:35:48;;;;;;;23.63;14.38;;;6.70;99.90;;;;;;4999890;28;20029;-90
2021/03/01 11:38:15;;;;;;;21.85;13.25;;;6.70;99.90;;;;;;5008596;28;20018;-93
2021/03/01 11:40:40;;;;;;;24.58;13.40;;;6.70;99.90;;;;;;5013337;28;20045;-92
2021/03/01 11:43:06;;;;;;;21.58;12.77;;;6.80;99.90;;;;;;4998767;28;20068;-93
2021/03/01 11:45:31;;;;;;;20.88;12.27;;;7.00;99.90;;;;;;4987508;28;20022;-90
2021/03/01 11:47:57;;;;;;;19.13;12.45;;;7.10;99.90;;;;;;4994658;28;20139;-91
2021/03/01 11:50:23;;;;;;;23.15;13.38;;;7.40;99.90;;;;;;4998102;28;20022;-91
2021/03/01 11:52:48;;;;;;;23.08;13.85;;;7.50;99.90;;;;;;4997922;28;20022;-89
2021/03/01 11:55:14;;;;;;;19.92;12.43;;;7.50;99.90;;;;;;4994376;28;20054;-89
2021/03/01 11:57:40;;;;;;;19.33;12.80;;;7.50;99.90;;;;;;4995141;28;20021;-90
2021/03/01 12:00:07;;;;;;;18.35;12.00;;;7.70;99.90;;;;;;5013433;28;20483;-90
2021/03/01 12:02:33;;;;;;;19.73;11.48;;;7.80;99.90;;;;;;4993423;28;20042;-89
2021/03/01 12:05:00;;;;;;;16.40;10.35;;;7.80;99.90;;;;;;4997752;28;20026;-90
2021/03/01 12:07:26;;;;;;;21.27;11.70;;;7.90;99.90;;;;;;4981940;28;20022;-91
2021/03/01 12:09:51;;;;;;;21.02;12.00;;;7.90;99.90;;;;;;5015401;28;20129;-90
2021/03/01 12:12:17;;;;;;;24.35;12.48;;;8.20;99.90;;;;;;5014650;28;20029;-91
2021/03/01 12:14:43;;;;;;;20.17;11.93;;;8.60;99.90;;;;;;5006933;28;20472;-92
2021/03/01 12:17:08;;;;;;;17.55;11.27;;;9.00;99.90;;;;;;4994218;28;20026;-91
2021/03/01 12:19:34;;;;;;;21.15;10.93;;;9.60;99.90;;;;;;5004069;28;20088;-92
2021/03/01 12:22:05;;;;;;;17.70;11.77;;;10.40;99.90;;;;;;4987660;28;20029;-88
2021/03/01 12:24:32;;;;;;;16.50;10.43;;;11.10;99.90;;;;;;4988365;28;20097;-90
2021/03/01 12:26:58;;;;;;;17.92;10.98;;;11.60;99.90;;;;;;4995838;28;20032;-90
2021/03/01 12:29:24;;;;;;;15.73;10.77;;;11.90;99.80;;;;;;4993755;28;20026;-89
2021/03/01 12:31:49;;;;;;;16.02;11.32;;;12.20;99.10;;;;;;5001303;28;20025;-89
2021/03/01 12:34:15;;;;;;;16.10;11.20;;;13.10;98.60;;;;;;4996657;28;20026;-91
2021/03/01 12:36:41;;;;;;;13.35;9.23;;;14.00;97.40;;;;;;4996611;28;20026;-91
2021/03/01 12:39:07;;;;;;;12.63;8.82;;;14.90;96.50;;;;;;4982445;28;20022;-91
2021/03/01 12:41:33;;;;;;;17.10;10.55;;;15.60;95.40;;;;;;4996296;28;20030;-90
2021/03/01 12:43:58;;;;;;;15.20;10.82;;;16.00;93.50;;;;;;4995823;28;20049;-91